Schedule Details


Flight Number: CTN342
Departure: Franjo Tudman (LDZA) at 22:00
Arrival: Sarajevo (LQSA) at 22:50
Route: TEBLI L187 KOMAR L608 BOSNA

Weather Information
LDZA 191300Z VRB06KT CAVOK 12/M03 Q1017 NOSIG
LQSA 191300Z VRB02KT 9999 SCT060 11/M01 Q1017 NOSIG
Schedule Frequency

Route Map